sensor_id;sensor_type;location;lat;lon;timestamp;temperature;humidity
7117;DHT22;3600;48.568;7.870;2024-03-22T00:02:02;12.60;99.90
7117;DHT22;3600;48.568;7.870;2024-03-22T00:04:29;12.60;99.90
7117;DHT22;3600;48.568;7.870;2024-03-22T00:06:55;12.40;99.90
7117;DHT22;3600;48.568;7.870;2024-03-22T00:09:22;12.40;99.90
7117;DHT22;3600;48.568;7.870;2024-03-22T00:11:48;12.30;99.90
7117;DHT22;3600;48.568;7.870;2024-03-22T00:14:14;12.20;99.90
7117;DHT22;3600;48.568;7.870;2024-03-22T00:16:40;12.00;99.90
7117;DHT22;3600;48.568;7.870;2024-03-22T00:19:12;12.00;99.90
7117;DHT22;3600;48.568;7.870;2024-03-22T00:21:38;11.80;99.90
7117;DHT22;3600;48.568;7.870;2024-03-22T00:24:04;11.80;99.90
7117;DHT22;3600;48.568;7.870;2024-03-22T00:26:31;11.90;99.90
7117;DHT22;3600;48.568;7.870;2024-03-22T00:28:57;12.10;99.90
7117;DHT22;3600;48.568;7.870;2024-03-22T00:31:25;12.20;99.90
7117;DHT22;3600;48.568;7.870;2024-03-22T00:33:51;12.10;99.90
7117;DHT22;3600;48.568;7.870;2024-03-22T00:36:17;12.10;99.90
7117;DHT22;3600;48.568;7.870;2024-03-22T00:38:44;12.20;99.90
7117;DHT22;3600;48.568;7.870;2024-03-22T00:41:10;12.20;99.90
7117;DHT22;3600;48.568;7.870;2024-03-22T00:43:36;12.20;99.90
7117;DHT22;3600;48.568;7.870;2024-03-22T00:46:02;12.30;99.90
7117;DHT22;3600;48.568;7.870;2024-03-22T00:48:29;12.20;99.90
7117;DHT22;3600;48.568;7.870;2024-03-22T00:50:55;12.20;99.90
7117;DHT22;3600;48.568;7.870;2024-03-22T00:53:21;12.20;99.90
7117;DHT22;3600;48.568;7.870;2024-03-22T00:55:47;12.20;99.90
7117;DHT22;3600;48.568;7.870;2024-03-22T00:58:19;12.10;99.90
7117;DHT22;3600;48.568;7.870;2024-03-22T01:00:46;12.10;99.90
7117;DHT22;3600;48.568;7.870;2024-03-22T01:03:12;12.00;99.90
7117;DHT22;3600;48.568;7.870;2024-03-22T01:05:39;12.00;99.90
7117;DHT22;3600;48.568;7.870;2024-03-22T01:08:06;11.90;99.90
7117;DHT22;3600;48.568;7.870;2024-03-22T01:10:33;11.90;99.90
7117;DHT22;3600;48.568;7.870;2024-03-22T01:12:59;11.90;99.90
7117;DHT22;3600;48.568;7.870;2024-03-22T01:15:26;11.90;99.90
7117;DHT22;3600;48.568;7.870;2024-03-22T01:17:53;11.90;99.90
7117;DHT22;3600;48.568;7.870;2024-03-22T01:20:19;11.90;99.90
7117;DHT22;3600;48.568;7.870;2024-03-22T01:22:45;11.90;99.90
7117;DHT22;3600;48.568;7.870;2024-03-22T01:25:11;11.90;99.90
7117;DHT22;3600;48.568;7.870;2024-03-22T01:27:37;11.90;99.90
7117;DHT22;3600;48.568;7.870;2024-03-22T01:30:03;11.90;99.90
7117;DHT22;3600;48.568;7.870;2024-03-22T01:32:29;11.80;99.90
7117;DHT22;3600;48.568;7.870;2024-03-22T01:34:57;11.80;99.90
7117;DHT22;3600;48.568;7.870;2024-03-22T01:37:23;11.80;99.90
7117;DHT22;3600;48.568;7.870;2024-03-22T01:39:49;11.80;99.90
7117;DHT22;3600;48.568;7.870;2024-03-22T01:42:15;11.70;99.90
7117;DHT22;3600;48.568;7.870;2024-03-22T01:44:41;11.70;99.90
7117;DHT22;3600;48.568;7.870;2024-03-22T01:47:07;11.70;99.90
7117;DHT22;3600;48.568;7.870;2024-03-22T01:49:34;11.70;99.90
7117;DHT22;3600;48.568;7.870;2024-03-22T01:52:00;11.60;99.90
7117;DHT22;3600;48.568;7.870;2024-03-22T01:54:26;11.60;99.90
7117;DHT22;3600;48.568;7.870;2024-03-22T01:56:52;11.60;99.90
7117;DHT22;3600;48.568;7.870;2024-03-22T01:59:19;11.60;99.90
7117;DHT22;3600;48.568;7.870;2024-03-22T02:01:45;11.50;99.90
7117;DHT22;3600;48.568;7.870;2024-03-22T02:04:11;11.50;99.90
7117;DHT22;3600;48.568;7.870;2024-03-22T02:06:37;11.50;99.90
7117;DHT22;3600;48.568;7.870;2024-03-22T02:09:03;11.50;99.90
7117;DHT22;3600;48.568;7.870;2024-03-22T02:11:36;11.50;99.90
7117;DHT22;3600;48.568;7.870;2024-03-22T02:14:03;11.50;99.90
7117;DHT22;3600;48.568;7.870;2024-03-22T02:16:30;11.50;99.90
7117;DHT22;3600;48.568;7.870;2024-03-22T02:18:56;11.40;99.90
7117;DHT22;3600;48.568;7.870;2024-03-22T02:21:22;11.20;99.90
7117;DHT22;3600;48.568;7.870;2024-03-22T02:23:48;11.20;99.90
7117;DHT22;3600;48.568;7.870;2024-03-22T02:26:14;11.40;99.90
7117;DHT22;3600;48.568;7.870;2024-03-22T02:28:39;11.40;99.90
7117;DHT22;3600;48.568;7.870;2024-03-22T02:31:05;11.40;99.90
7117;DHT22;3600;48.568;7.870;2024-03-22T02:33:31;11.40;99.90
7117;DHT22;3600;48.568;7.870;2024-03-22T02:35:58;11.30;99.90
7117;DHT22;3600;48.568;7.870;2024-03-22T02:38:24;11.20;99.90
7117;DHT22;3600;48.568;7.870;2024-03-22T02:40:52;11.20;99.90
7117;DHT22;3600;48.568;7.870;2024-03-22T02:43:18;11.30;99.90
7117;DHT22;3600;48.568;7.870;2024-03-22T02:45:45;11.30;99.90
7117;DHT22;3600;48.568;7.870;2024-03-22T02:48:11;11.10;99.90
7117;DHT22;3600;48.568;7.870;2024-03-22T02:50:37;11.10;99.90
7117;DHT22;3600;48.568;7.870;2024-03-22T02:53:04;11.20;99.90
7117;DHT22;3600;48.568;7.870;2024-03-22T02:55:36;11.30;99.90
7117;DHT22;3600;48.568;7.870;2024-03-22T02:58:03;11.30;99.90
7117;DHT22;3600;48.568;7.870;2024-03-22T03:00:29;11.30;99.90
7117;DHT22;3600;48.568;7.870;2024-03-22T03:03:05;11.20;99.90
7117;DHT22;3600;48.568;7.870;2024-03-22T03:05:32;11.10;99.90
7117;DHT22;3600;48.568;7.870;2024-03-22T03:07:58;11.10;99.90
7117;DHT22;3600;48.568;7.870;2024-03-22T03:10:24;11.20;99.90
7117;DHT22;3600;48.568;7.870;2024-03-22T03:12:50;11.40;99.90
7117;DHT22;3600;48.568;7.870;2024-03-22T03:15:17;11.40;99.90
7117;DHT22;3600;48.568;7.870;2024-03-22T03:17:46;11.50;99.90
7117;DHT22;3600;48.568;7.870;2024-03-22T03:20:19;11.50;99.90
7117;DHT22;3600;48.568;7.870;2024-03-22T03:22:45;11.40;99.90
7117;DHT22;3600;48.568;7.870;2024-03-22T03:25:11;11.30;99.90
7117;DHT22;3600;48.568;7.870;2024-03-22T03:27:37;11.30;99.90
7117;DHT22;3600;48.568;7.870;2024-03-22T03:30:04;11.20;99.90
7117;DHT22;3600;48.568;7.870;2024-03-22T03:32:31;11.20;99.90
7117;DHT22;3600;48.568;7.870;2024-03-22T03:34:57;11.10;99.90
7117;DHT22;3600;48.568;7.870;2024-03-22T03:37:23;11.10;99.90
7117;DHT22;3600;48.568;7.870;2024-03-22T03:39:49;11.10;99.90
7117;DHT22;3600;48.568;7.870;2024-03-22T03:42:15;11.10;99.90
7117;DHT22;3600;48.568;7.870;2024-03-22T03:44:41;11.00;99.90
7117;DHT22;3600;48.568;7.870;2024-03-22T03:47:08;11.20;99.90
7117;DHT22;3600;48.568;7.870;2024-03-22T03:49:34;11.30;99.90
7117;DHT22;3600;48.568;7.870;2024-03-22T03:52:00;11.40;99.90
7117;DHT22;3600;48.568;7.870;2024-03-22T03:54:26;11.40;99.90
7117;DHT22;3600;48.568;7.870;2024-03-22T03:56:52;11.50;99.90
7117;DHT22;3600;48.568;7.870;2024-03-22T03:59:18;11.40;99.90
7117;DHT22;3600;48.568;7.870;2024-03-22T04:01:44;11.40;99.90
7117;DHT22;3600;48.568;7.870;2024-03-22T04:04:10;11.40;99.90
7117;DHT22;3600;48.568;7.870;2024-03-22T04:06:36;11.40;99.90
7117;DHT22;3600;48.568;7.870;2024-03-22T04:09:05;11.40;99.90
7117;DHT22;3600;48.568;7.870;2024-03-22T04:11:31;11.50;99.90
7117;DHT22;3600;48.568;7.870;2024-03-22T04:13:57;11.50;99.90
7117;DHT22;3600;48.568;7.870;2024-03-22T04:16:24;11.50;99.90
7117;DHT22;3600;48.568;7.870;2024-03-22T04:18:53;11.40;99.90
7117;DHT22;3600;48.568;7.870;2024-03-22T04:21:19;11.50;99.90
7117;DHT22;3600;48.568;7.870;2024-03-22T04:23:45;11.50;99.90
7117;DHT22;3600;48.568;7.870;2024-03-22T04:26:11;11.50;99.90
7117;DHT22;3600;48.568;7.870;2024-03-22T04:28:38;11.50;99.90
7117;DHT22;3600;48.568;7.870;2024-03-22T04:31:05;11.50;99.90
7117;DHT22;3600;48.568;7.870;2024-03-22T04:33:32;11.40;99.90
7117;DHT22;3600;48.568;7.870;2024-03-22T04:35:59;11.40;99.90
7117;DHT22;3600;48.568;7.870;2024-03-22T04:38:27;11.40;99.90
7117;DHT22;3600;48.568;7.870;2024-03-22T04:40:53;11.50;99.90
7117;DHT22;3600;48.568;7.870;2024-03-22T04:43:23;11.40;99.90
7117;DHT22;3600;48.568;7.870;2024-03-22T04:45:50;11.40;99.90
7117;DHT22;3600;48.568;7.870;2024-03-22T04:48:20;11.40;99.90
7117;DHT22;3600;48.568;7.870;2024-03-22T04:50:51;11.40;99.90
7117;DHT22;3600;48.568;7.870;2024-03-22T04:53:18;11.40;99.90
7117;DHT22;3600;48.568;7.870;2024-03-22T04:55:47;11.40;99.90
7117;DHT22;3600;48.568;7.870;2024-03-22T04:58:18;11.20;99.90
7117;DHT22;3600;48.568;7.870;2024-03-22T05:00:45;11.10;99.90
7117;DHT22;3600;48.568;7.870;2024-03-22T05:03:11;11.10;99.90
7117;DHT22;3600;48.568;7.870;2024-03-22T05:05:38;10.90;99.90
7117;DHT22;3600;48.568;7.870;2024-03-22T05:08:04;10.80;99.90
7117;DHT22;3600;48.568;7.870;2024-03-22T05:10:31;10.80;99.90
7117;DHT22;3600;48.568;7.870;2024-03-22T05:12:57;11.00;99.90
7117;DHT22;3600;48.568;7.870;2024-03-22T05:15:24;11.00;99.90
7117;DHT22;3600;48.568;7.870;2024-03-22T05:17:53;11.00;99.90
7117;DHT22;3600;48.568;7.870;2024-03-22T05:20:22;11.10;99.90
7117;DHT22;3600;48.568;7.870;2024-03-22T05:22:50;10.80;99.90
7117;DHT22;3600;48.568;7.870;2024-03-22T05:25:16;10.90;99.90
7117;DHT22;3600;48.568;7.870;2024-03-22T05:27:44;11.00;99.90
7117;DHT22;3600;48.568;7.870;2024-03-22T05:30:12;11.00;99.90
7117;DHT22;3600;48.568;7.870;2024-03-22T05:32:39;11.00;99.90
7117;DHT22;3600;48.568;7.870;2024-03-22T05:35:06;11.00;99.90
7117;DHT22;3600;48.568;7.870;2024-03-22T05:37:32;11.00;99.90
7117;DHT22;3600;48.568;7.870;2024-03-22T05:40:00;11.10;99.90
7117;DHT22;3600;48.568;7.870;2024-03-22T05:42:26;11.20;99.90
7117;DHT22;3600;48.568;7.870;2024-03-22T05:44:52;11.30;99.90
7117;DHT22;3600;48.568;7.870;2024-03-22T05:47:19;11.30;99.90
7117;DHT22;3600;48.568;7.870;2024-03-22T05:49:46;11.30;99.90
7117;DHT22;3600;48.568;7.870;2024-03-22T05:52:16;11.30;99.90
7117;DHT22;3600;48.568;7.870;2024-03-22T05:54:53;11.30;99.90
7117;DHT22;3600;48.568;7.870;2024-03-22T05:57:19;11.20;99.90
7117;DHT22;3600;48.568;7.870;2024-03-22T05:59:46;11.20;99.90
7117;DHT22;3600;48.568;7.870;2024-03-22T06:02:13;11.20;99.90
7117;DHT22;3600;48.568;7.870;2024-03-22T06:04:42;11.10;99.90
7117;DHT22;3600;48.568;7.870;2024-03-22T06:07:08;11.20;99.90
7117;DHT22;3600;48.568;7.870;2024-03-22T06:09:34;11.20;99.90
7117;DHT22;3600;48.568;7.870;2024-03-22T06:12:04;11.30;99.90
7117;DHT22;3600;48.568;7.870;2024-03-22T06:14:30;11.30;99.90
7117;DHT22;3600;48.568;7.870;2024-03-22T06:16:57;11.30;99.90
7117;DHT22;3600;48.568;7.870;2024-03-22T06:19:24;11.30;99.90
7117;DHT22;3600;48.568;7.870;2024-03-22T06:21:50;11.30;99.90
7117;DHT22;3600;48.568;7.870;2024-03-22T06:24:16;11.40;99.90
7117;DHT22;3600;48.568;7.870;2024-03-22T06:26:42;11.40;99.90
7117;DHT22;3600;48.568;7.870;2024-03-22T06:29:08;11.30;99.90
7117;DHT22;3600;48.568;7.870;2024-03-22T06:31:34;11.40;99.90
7117;DHT22;3600;48.568;7.870;2024-03-22T06:34:01;11.40;99.90
7117;DHT22;3600;48.568;7.870;2024-03-22T06:36:34;11.40;99.90
7117;DHT22;3600;48.568;7.870;2024-03-22T06:39:00;11.30;99.90
7117;DHT22;3600;48.568;7.870;2024-03-22T06:41:27;11.40;99.90
7117;DHT22;3600;48.568;7.870;2024-03-22T06:43:56;11.40;99.90
7117;DHT22;3600;48.568;7.870;2024-03-22T06:46:25;11.50;99.90
7117;DHT22;3600;48.568;7.870;2024-03-22T06:48:57;11.50;99.90
7117;DHT22;3600;48.568;7.870;2024-03-22T06:51:24;11.50;99.90
7117;DHT22;3600;48.568;7.870;2024-03-22T06:53:50;11.40;99.90
7117;DHT22;3600;48.568;7.870;2024-03-22T06:56:17;11.50;99.90
7117;DHT22;3600;48.568;7.870;2024-03-22T06:58:44;11.60;99.90
7117;DHT22;3600;48.568;7.870;2024-03-22T07:01:10;11.50;99.90
7117;DHT22;3600;48.568;7.870;2024-03-22T07:03:36;11.50;99.90
7117;DHT22;3600;48.568;7.870;2024-03-22T07:06:02;11.60;99.90
7117;DHT22;3600;48.568;7.870;2024-03-22T07:08:29;11.60;99.90
7117;DHT22;3600;48.568;7.870;2024-03-22T07:11:07;11.70;99.90
7117;DHT22;3600;48.568;7.870;2024-03-22T07:13:34;11.60;99.90
7117;DHT22;3600;48.568;7.870;2024-03-22T07:16:01;11.70;99.90
7117;DHT22;3600;48.568;7.870;2024-03-22T07:18:27;11.80;99.90
7117;DHT22;3600;48.568;7.870;2024-03-22T07:20:53;11.90;99.90
7117;DHT22;3600;48.568;7.870;2024-03-22T07:23:19;11.90;99.90
7117;DHT22;3600;48.568;7.870;2024-03-22T07:25:46;11.90;99.90
7117;DHT22;3600;48.568;7.870;2024-03-22T07:28:21;12.00;99.90
7117;DHT22;3600;48.568;7.870;2024-03-22T07:30:47;12.10;99.90
7117;DHT22;3600;48.568;7.870;2024-03-22T07:33:17;12.20;99.90
7117;DHT22;3600;48.568;7.870;2024-03-22T07:35:44;12.10;99.90
7117;DHT22;3600;48.568;7.870;2024-03-22T07:38:10;12.10;99.90
7117;DHT22;3600;48.568;7.870;2024-03-22T07:40:38;12.00;99.90
7117;DHT22;3600;48.568;7.870;2024-03-22T07:43:07;12.00;99.90
7117;DHT22;3600;48.568;7.870;2024-03-22T07:45:42;12.00;99.90
7117;DHT22;3600;48.568;7.870;2024-03-22T07:48:08;12.10;99.90
7117;DHT22;3600;48.568;7.870;2024-03-22T07:50:36;12.20;99.90
7117;DHT22;3600;48.568;7.870;2024-03-22T07:53:02;12.20;99.90
7117;DHT22;3600;48.568;7.870;2024-03-22T07:55:28;12.20;99.90
7117;DHT22;3600;48.568;7.870;2024-03-22T07:57:54;12.20;99.90
7117;DHT22;3600;48.568;7.870;2024-03-22T08:00:29;12.30;99.90
7117;DHT22;3600;48.568;7.870;2024-03-22T08:03:06;12.40;99.90
7117;DHT22;3600;48.568;7.870;2024-03-22T08:05:33;12.50;99.90
7117;DHT22;3600;48.568;7.870;2024-03-22T08:07:59;12.50;99.90
7117;DHT22;3600;48.568;7.870;2024-03-22T08:10:25;12.60;99.90
7117;DHT22;3600;48.568;7.870;2024-03-22T08:12:52;12.60;99.90
7117;DHT22;3600;48.568;7.870;2024-03-22T08:15:18;12.70;99.90
7117;DHT22;3600;48.568;7.870;2024-03-22T08:17:44;12.80;99.90
7117;DHT22;3600;48.568;7.870;2024-03-22T08:20:10;12.80;99.90
7117;DHT22;3600;48.568;7.870;2024-03-22T08:22:36;13.00;99.90
7117;DHT22;3600;48.568;7.870;2024-03-22T08:25:02;13.00;99.90
7117;DHT22;3600;48.568;7.870;2024-03-22T08:27:33;13.20;99.90
7117;DHT22;3600;48.568;7.870;2024-03-22T08:30:00;13.20;99.90
7117;DHT22;3600;48.568;7.870;2024-03-22T08:32:26;13.20;99.90
7117;DHT22;3600;48.568;7.870;2024-03-22T08:34:52;13.30;99.90
7117;DHT22;3600;48.568;7.870;2024-03-22T08:37:19;13.40;99.90
7117;DHT22;3600;48.568;7.870;2024-03-22T08:39:45;13.50;99.90
7117;DHT22;3600;48.568;7.870;2024-03-22T08:42:11;13.60;99.90
7117;DHT22;3600;48.568;7.870;2024-03-22T08:44:37;13.60;99.90
7117;DHT22;3600;48.568;7.870;2024-03-22T08:47:03;13.70;99.90
7117;DHT22;3600;48.568;7.870;2024-03-22T08:49:29;13.80;99.90
7117;DHT22;3600;48.568;7.870;2024-03-22T08:51:56;13.90;99.90
7117;DHT22;3600;48.568;7.870;2024-03-22T08:54:22;14.00;99.90
7117;DHT22;3600;48.568;7.870;2024-03-22T08:56:48;14.00;99.90
7117;DHT22;3600;48.568;7.870;2024-03-22T08:59:20;14.10;99.90
7117;DHT22;3600;48.568;7.870;2024-03-22T09:01:46;14.20;99.90
7117;DHT22;3600;48.568;7.870;2024-03-22T09:04:15;14.30;99.90
7117;DHT22;3600;48.568;7.870;2024-03-22T09:06:42;14.30;99.90
7117;DHT22;3600;48.568;7.870;2024-03-22T09:09:08;14.30;99.90
7117;DHT22;3600;48.568;7.870;2024-03-22T09:11:34;14.30;99.90
7117;DHT22;3600;48.568;7.870;2024-03-22T09:14:00;14.40;99.90
7117;DHT22;3600;48.568;7.870;2024-03-22T09:16:27;14.50;99.90
7117;DHT22;3600;48.568;7.870;2024-03-22T09:18:53;14.70;99.90
7117;DHT22;3600;48.568;7.870;2024-03-22T09:21:23;14.70;99.90
7117;DHT22;3600;48.568;7.870;2024-03-22T09:23:50;14.70;99.90
7117;DHT22;3600;48.568;7.870;2024-03-22T09:26:16;14.80;99.90
7117;DHT22;3600;48.568;7.870;2024-03-22T09:28:46;14.80;99.90
7117;DHT22;3600;48.568;7.870;2024-03-22T09:31:12;14.90;99.90
7117;DHT22;3600;48.568;7.870;2024-03-22T09:33:38;15.00;99.90
7117;DHT22;3600;48.568;7.870;2024-03-22T09:36:04;15.10;99.90
7117;DHT22;3600;48.568;7.870;2024-03-22T09:38:31;15.20;99.90
7117;DHT22;3600;48.568;7.870;2024-03-22T09:40:57;15.20;99.90
7117;DHT22;3600;48.568;7.870;2024-03-22T09:43:27;15.30;99.90
7117;DHT22;3600;48.568;7.870;2024-03-22T09:45:55;15.40;99.90
7117;DHT22;3600;48.568;7.870;2024-03-22T09:48:22;15.50;99.90
7117;DHT22;3600;48.568;7.870;2024-03-22T09:50:49;15.50;99.90
7117;DHT22;3600;48.568;7.870;2024-03-22T09:53:51;15.50;99.90
7117;DHT22;3600;48.568;7.870;2024-03-22T09:56:21;15.60;99.90
7117;DHT22;3600;48.568;7.870;2024-03-22T09:58:47;15.60;99.90
7117;DHT22;3600;48.568;7.870;2024-03-22T10:01:14;15.80;99.90
7117;DHT22;3600;48.568;7.870;2024-03-22T10:03:42;15.90;99.90
7117;DHT22;3600;48.568;7.870;2024-03-22T10:06:09;16.00;99.90
7117;DHT22;3600;48.568;7.870;2024-03-22T10:08:35;16.00;99.90
7117;DHT22;3600;48.568;7.870;2024-03-22T10:11:04;16.00;99.90
7117;DHT22;3600;48.568;7.870;2024-03-22T10:13:30;16.10;99.90
7117;DHT22;3600;48.568;7.870;2024-03-22T10:15:57;16.20;99.90
7117;DHT22;3600;48.568;7.870;2024-03-22T10:18:26;16.20;99.90
7117;DHT22;3600;48.568;7.870;2024-03-22T10:21:03;16.40;99.90
7117;DHT22;3600;48.568;7.870;2024-03-22T10:23:30;16.50;99.90
7117;DHT22;3600;48.568;7.870;2024-03-22T10:25:57;16.50;99.90
7117;DHT22;3600;48.568;7.870;2024-03-22T10:28:27;16.50;99.90
7117;DHT22;3600;48.568;7.870;2024-03-22T10:30:53;16.60;99.90
7117;DHT22;3600;48.568;7.870;2024-03-22T10:33:20;16.60;99.90
7117;DHT22;3600;48.568;7.870;2024-03-22T10:35:52;16.60;99.90
7117;DHT22;3600;48.568;7.870;2024-03-22T10:38:20;16.70;99.90
7117;DHT22;3600;48.568;7.870;2024-03-22T10:40:47;16.70;99.90
7117;DHT22;3600;48.568;7.870;2024-03-22T10:43:14;16.80;99.90
7117;DHT22;3600;48.568;7.870;2024-03-22T10:45:41;16.80;99.90
7117;DHT22;3600;48.568;7.870;2024-03-22T10:48:10;16.90;99.90
7117;DHT22;3600;48.568;7.870;2024-03-22T10:50:40;17.00;99.90
7117;DHT22;3600;48.568;7.870;2024-03-22T10:53:11;17.10;99.90
7117;DHT22;3600;48.568;7.870;2024-03-22T10:55:42;17.20;99.90
7117;DHT22;3600;48.568;7.870;2024-03-22T10:58:21;17.30;99.90
7117;DHT22;3600;48.568;7.870;2024-03-22T11:00:52;17.40;99.90
7117;DHT22;3600;48.568;7.870;2024-03-22T11:03:25;17.50;99.90
7117;DHT22;3600;48.568;7.870;2024-03-22T11:05:56;17.60;99.90
7117;DHT22;3600;48.568;7.870;2024-03-22T11:08:29;17.70;99.90
7117;DHT22;3600;48.568;7.870;2024-03-22T11:11:11;17.70;99.90
7117;DHT22;3600;48.568;7.870;2024-03-22T11:13:39;17.80;99.90
7117;DHT22;3600;48.568;7.870;2024-03-22T11:16:05;17.80;99.90
7117;DHT22;3600;48.568;7.870;2024-03-22T11:18:33;17.80;99.90
7117;DHT22;3600;48.568;7.870;2024-03-22T11:21:00;17.80;99.90
7117;DHT22;3600;48.568;7.870;2024-03-22T11:23:26;17.70;99.90
7117;DHT22;3600;48.568;7.870;2024-03-22T11:25:52;17.80;99.90
7117;DHT22;3600;48.568;7.870;2024-03-22T11:28:18;17.80;99.90
7117;DHT22;3600;48.568;7.870;2024-03-22T11:30:45;17.90;99.90
7117;DHT22;3600;48.568;7.870;2024-03-22T11:33:12;17.90;99.90
7117;DHT22;3600;48.568;7.870;2024-03-22T11:35:38;17.80;99.90
7117;DHT22;3600;48.568;7.870;2024-03-22T11:38:05;17.80;99.90
7117;DHT22;3600;48.568;7.870;2024-03-22T11:40:32;17.80;99.90
7117;DHT22;3600;48.568;7.870;2024-03-22T11:43:00;17.80;99.90
7117;DHT22;3600;48.568;7.870;2024-03-22T11:45:28;17.90;98.90
7117;DHT22;3600;48.568;7.870;2024-03-22T11:48:35;17.90;99.30
7117;DHT22;3600;48.568;7.870;2024-03-22T11:51:17;17.80;99.10
7117;DHT22;3600;48.568;7.870;2024-03-22T11:53:59;17.90;99.20
7117;DHT22;3600;48.568;7.870;2024-03-22T11:56:31;17.80;99.00
7117;DHT22;3600;48.568;7.870;2024-03-22T11:58:59;17.80;99.10
7117;DHT22;3600;48.568;7.870;2024-03-22T12:01:27;17.80;99.10
7117;DHT22;3600;48.568;7.870;2024-03-22T12:03:53;17.90;99.20
7117;DHT22;3600;48.568;7.870;2024-03-22T12:06:20;17.80;99.30
7117;DHT22;3600;48.568;7.870;2024-03-22T12:08:47;17.80;99.40
7117;DHT22;3600;48.568;7.870;2024-03-22T12:11:13;17.80;99.00
7117;DHT22;3600;48.568;7.870;2024-03-22T12:13:40;17.80;99.50
7117;DHT22;3600;48.568;7.870;2024-03-22T12:16:07;17.80;99.50
7117;DHT22;3600;48.568;7.870;2024-03-22T12:18:36;17.80;99.70
7117;DHT22;3600;48.568;7.870;2024-03-22T12:21:17;17.80;99.80
7117;DHT22;3600;48.568;7.870;2024-03-22T12:23:44;17.90;99.90
7117;DHT22;3600;48.568;7.870;2024-03-22T12:26:10;17.90;99.90
7117;DHT22;3600;48.568;7.870;2024-03-22T12:28:36;17.90;99.90
7117;DHT22;3600;48.568;7.870;2024-03-22T12:31:07;18.00;99.70
7117;DHT22;3600;48.568;7.870;2024-03-22T12:33:34;18.00;99.80
7117;DHT22;3600;48.568;7.870;2024-03-22T12:36:00;18.00;99.60
7117;DHT22;3600;48.568;7.870;2024-03-22T12:38:27;18.00;99.80
7117;DHT22;3600;48.568;7.870;2024-03-22T12:40:55;18.00;99.10
7117;DHT22;3600;48.568;7.870;2024-03-22T12:43:22;18.10;98.70
7117;DHT22;3600;48.568;7.870;2024-03-22T12:45:49;18.10;98.50
7117;DHT22;3600;48.568;7.870;2024-03-22T12:48:16;18.00;98.80
7117;DHT22;3600;48.568;7.870;2024-03-22T12:50:42;18.00;99.00
7117;DHT22;3600;48.568;7.870;2024-03-22T12:53:09;17.90;99.00
7117;DHT22;3600;48.568;7.870;2024-03-22T12:55:36;18.00;98.80
7117;DHT22;3600;48.568;7.870;2024-03-22T12:58:05;17.90;99.10
7117;DHT22;3600;48.568;7.870;2024-03-22T13:00:32;17.90;99.20
7117;DHT22;3600;48.568;7.870;2024-03-22T13:02:59;17.90;99.10
7117;DHT22;3600;48.568;7.870;2024-03-22T13:05:30;17.80;99.20
7117;DHT22;3600;48.568;7.870;2024-03-22T13:08:03;17.90;99.30
7117;DHT22;3600;48.568;7.870;2024-03-22T13:10:29;17.90;99.30
7117;DHT22;3600;48.568;7.870;2024-03-22T13:12:56;17.90;99.30
7117;DHT22;3600;48.568;7.870;2024-03-22T13:15:28;17.90;99.50
7117;DHT22;3600;48.568;7.870;2024-03-22T13:18:03;17.90;99.90
7117;DHT22;3600;48.568;7.870;2024-03-22T13:20:46;17.90;99.80
7117;DHT22;3600;48.568;7.870;2024-03-22T13:23:16;17.90;99.60
7117;DHT22;3600;48.568;7.870;2024-03-22T13:25:48;17.90;99.70
7117;DHT22;3600;48.568;7.870;2024-03-22T13:28:15;17.90;99.40
7117;DHT22;3600;48.568;7.870;2024-03-22T13:30:48;17.80;99.50
7117;DHT22;3600;48.568;7.870;2024-03-22T13:33:25;17.80;99.40
7117;DHT22;3600;48.568;7.870;2024-03-22T13:36:12;17.80;99.10
7117;DHT22;3600;48.568;7.870;2024-03-22T13:38:47;17.90;99.10
7117;DHT22;3600;48.568;7.870;2024-03-22T13:42:01;17.80;99.40
7117;DHT22;3600;48.568;7.870;2024-03-22T13:44:39;17.80;99.70
7117;DHT22;3600;48.568;7.870;2024-03-22T13:47:06;17.90;99.60
7117;DHT22;3600;48.568;7.870;2024-03-22T13:49:53;17.80;99.70
7117;DHT22;3600;48.568;7.870;2024-03-22T13:52:19;17.90;99.70
7117;DHT22;3600;48.568;7.870;2024-03-22T13:54:47;17.90;99.50
7117;DHT22;3600;48.568;7.870;2024-03-22T13:57:35;17.90;99.70
7117;DHT22;3600;48.568;7.870;2024-03-22T14:00:01;18.00;99.00
7117;DHT22;3600;48.568;7.870;2024-03-22T14:02:33;18.00;98.90
7117;DHT22;3600;48.568;7.870;2024-03-22T14:05:01;18.10;98.20
7117;DHT22;3600;48.568;7.870;2024-03-22T14:07:30;18.00;98.60
7117;DHT22;3600;48.568;7.870;2024-03-22T14:09:56;18.00;98.40
7117;DHT22;3600;48.568;7.870;2024-03-22T14:12:23;18.00;98.10
7117;DHT22;3600;48.568;7.870;2024-03-22T14:14:56;18.00;98.30
7117;DHT22;3600;48.568;7.870;2024-03-22T14:17:32;17.90;98.30
7117;DHT22;3600;48.568;7.870;2024-03-22T14:19:58;18.00;98.10
7117;DHT22;3600;48.568;7.870;2024-03-22T14:22:34;18.00;98.30
7117;DHT22;3600;48.568;7.870;2024-03-22T14:25:01;18.00;98.40
7117;DHT22;3600;48.568;7.870;2024-03-22T14:27:28;18.00;98.20
7117;DHT22;3600;48.568;7.870;2024-03-22T14:29:55;18.00;98.30
7117;DHT22;3600;48.568;7.870;2024-03-22T14:32:24;17.90;98.20
7117;DHT22;3600;48.568;7.870;2024-03-22T14:34:51;17.90;97.50
7117;DHT22;3600;48.568;7.870;2024-03-22T14:37:17;18.00;97.70
7117;DHT22;3600;48.568;7.870;2024-03-22T14:39:44;17.90;97.40
7117;DHT22;3600;48.568;7.870;2024-03-22T14:42:10;17.90;97.40
7117;DHT22;3600;48.568;7.870;2024-03-22T14:44:38;17.90;97.60
7117;DHT22;3600;48.568;7.870;2024-03-22T14:47:04;17.90;97.60
7117;DHT22;3600;48.568;7.870;2024-03-22T14:49:33;17.80;97.80
7117;DHT22;3600;48.568;7.870;2024-03-22T14:52:00;17.90;98.00
7117;DHT22;3600;48.568;7.870;2024-03-22T14:54:27;17.90;98.10
7117;DHT22;3600;48.568;7.870;2024-03-22T14:56:53;17.90;98.40
7117;DHT22;3600;48.568;7.870;2024-03-22T14:59:22;18.00;98.00
7117;DHT22;3600;48.568;7.870;2024-03-22T15:01:49;17.90;98.10
7117;DHT22;3600;48.568;7.870;2024-03-22T15:04:15;18.10;97.90
7117;DHT22;3600;48.568;7.870;2024-03-22T15:06:41;18.10;97.90
7117;DHT22;3600;48.568;7.870;2024-03-22T15:09:07;18.20;98.00
7117;DHT22;3600;48.568;7.870;2024-03-22T15:11:45;18.20;97.70
7117;DHT22;3600;48.568;7.870;2024-03-22T15:14:12;18.30;97.50
7117;DHT22;3600;48.568;7.870;2024-03-22T15:16:39;18.30;97.60
7117;DHT22;3600;48.568;7.870;2024-03-22T15:19:08;18.30;97.20
7117;DHT22;3600;48.568;7.870;2024-03-22T15:21:50;18.30;97.40
7117;DHT22;3600;48.568;7.870;2024-03-22T15:24:26;18.20;97.80
7117;DHT22;3600;48.568;7.870;2024-03-22T15:26:55;18.20;97.60
7117;DHT22;3600;48.568;7.870;2024-03-22T15:29:32;18.30;97.50
7117;DHT22;3600;48.568;7.870;2024-03-22T15:32:01;18.20;97.30
7117;DHT22;3600;48.568;7.870;2024-03-22T15:34:27;18.30;97.40
7117;DHT22;3600;48.568;7.870;2024-03-22T15:36:54;18.20;97.50
7117;DHT22;3600;48.568;7.870;2024-03-22T15:39:20;18.20;98.00
7117;DHT22;3600;48.568;7.870;2024-03-22T15:41:47;18.20;97.80
7117;DHT22;3600;48.568;7.870;2024-03-22T15:44:14;18.10;98.10
7117;DHT22;3600;48.568;7.870;2024-03-22T15:46:40;18.10;98.40
7117;DHT22;3600;48.568;7.870;2024-03-22T15:49:06;18.10;98.50
7117;DHT22;3600;48.568;7.870;2024-03-22T15:51:33;18.00;98.10
7117;DHT22;3600;48.568;7.870;2024-03-22T15:53:59;18.10;98.10
7117;DHT22;3600;48.568;7.870;2024-03-22T15:56:26;18.20;97.80
7117;DHT22;3600;48.568;7.870;2024-03-22T15:58:52;18.10;97.70
7117;DHT22;3600;48.568;7.870;2024-03-22T16:01:18;18.30;97.60
7117;DHT22;3600;48.568;7.870;2024-03-22T16:03:44;18.40;98.30
7117;DHT22;3600;48.568;7.870;2024-03-22T16:06:16;18.60;97.60
7117;DHT22;3600;48.568;7.870;2024-03-22T16:08:45;18.80;97.30